sensor_id;sensor_type;location;lat;lon;timestamp;P1;durP1;ratioP1;P2;durP2;ratioP2
32333;SDS011;18810;53.040;8.850;2023-07-30T00:01:20;10.63;;;8.23;;
32333;SDS011;18810;53.040;8.850;2023-07-30T00:03:45;9.02;;;7.90;;
32333;SDS011;18810;53.040;8.850;2023-07-30T00:06:11;9.80;;;8.57;;
32333;SDS011;18810;53.040;8.850;2023-07-30T00:08:37;11.05;;;7.35;;
32333;SDS011;18810;53.040;8.850;2023-07-30T00:11:02;11.35;;;7.53;;
32333;SDS011;18810;53.040;8.850;2023-07-30T00:13:28;9.25;;;7.97;;
32333;SDS011;18810;53.040;8.850;2023-07-30T00:15:54;10.45;;;7.05;;
32333;SDS011;18810;53.040;8.850;2023-07-30T00:18:19;9.25;;;8.27;;
32333;SDS011;18810;53.040;8.850;2023-07-30T00:20:45;10.77;;;8.00;;
32333;SDS011;18810;53.040;8.850;2023-07-30T00:23:11;8.95;;;7.35;;
32333;SDS011;18810;53.040;8.850;2023-07-30T00:25:36;9.23;;;8.00;;
32333;SDS011;18810;53.040;8.850;2023-07-30T00:28:02;7.47;;;6.78;;
32333;SDS011;18810;53.040;8.850;2023-07-30T00:30:28;8.98;;;6.70;;
32333;SDS011;18810;53.040;8.850;2023-07-30T00:32:54;8.20;;;6.82;;
32333;SDS011;18810;53.040;8.850;2023-07-30T00:35:19;9.98;;;7.72;;
32333;SDS011;18810;53.040;8.850;2023-07-30T00:37:45;9.70;;;7.35;;
32333;SDS011;18810;53.040;8.850;2023-07-30T00:40:11;8.30;;;6.78;;
32333;SDS011;18810;53.040;8.850;2023-07-30T00:42:37;8.70;;;7.63;;
32333;SDS011;18810;53.040;8.850;2023-07-30T00:45:03;13.02;;;6.95;;
32333;SDS011;18810;53.040;8.850;2023-07-30T00:47:29;11.63;;;7.38;;
32333;SDS011;18810;53.040;8.850;2023-07-30T00:49:56;12.00;;;7.60;;
32333;SDS011;18810;53.040;8.850;2023-07-30T00:52:22;13.23;;;8.52;;
32333;SDS011;18810;53.040;8.850;2023-07-30T00:54:50;12.57;;;9.18;;
32333;SDS011;18810;53.040;8.850;2023-07-30T00:57:17;13.45;;;7.78;;
32333;SDS011;18810;53.040;8.850;2023-07-30T00:59:44;9.98;;;8.02;;
32333;SDS011;18810;53.040;8.850;2023-07-30T01:02:11;12.25;;;7.78;;
32333;SDS011;18810;53.040;8.850;2023-07-30T01:04:37;12.35;;;7.53;;
32333;SDS011;18810;53.040;8.850;2023-07-30T01:07:04;15.15;;;8.77;;
32333;SDS011;18810;53.040;8.850;2023-07-30T01:09:31;12.60;;;7.53;;
32333;SDS011;18810;53.040;8.850;2023-07-30T01:11:58;13.20;;;8.52;;
32333;SDS011;18810;53.040;8.850;2023-07-30T01:14:26;14.43;;;8.65;;
32333;SDS011;18810;53.040;8.850;2023-07-30T01:16:52;13.45;;;8.63;;
32333;SDS011;18810;53.040;8.850;2023-07-30T01:19:18;14.70;;;8.40;;
32333;SDS011;18810;53.040;8.850;2023-07-30T01:21:44;13.75;;;8.55;;
32333;SDS011;18810;53.040;8.850;2023-07-30T01:24:10;10.40;;;8.68;;
32333;SDS011;18810;53.040;8.850;2023-07-30T01:29:06;11.10;;;8.82;;
32333;SDS011;18810;53.040;8.850;2023-07-30T01:31:36;19.73;;;8.52;;
32333;SDS011;18810;53.040;8.850;2023-07-30T01:34:05;10.93;;;8.55;;
32333;SDS011;18810;53.040;8.850;2023-07-30T01:36:32;11.30;;;8.63;;
32333;SDS011;18810;53.040;8.850;2023-07-30T01:38:59;10.15;;;8.05;;
32333;SDS011;18810;53.040;8.850;2023-07-30T01:41:26;13.05;;;9.45;;
32333;SDS011;18810;53.040;8.850;2023-07-30T01:43:53;12.45;;;8.68;;
32333;SDS011;18810;53.040;8.850;2023-07-30T01:46:19;14.38;;;8.98;;
32333;SDS011;18810;53.040;8.850;2023-07-30T01:48:44;14.93;;;9.45;;
32333;SDS011;18810;53.040;8.850;2023-07-30T01:51:10;13.65;;;8.75;;
32333;SDS011;18810;53.040;8.850;2023-07-30T01:53:36;14.68;;;9.82;;
32333;SDS011;18810;53.040;8.850;2023-07-30T01:56:02;15.90;;;10.23;;
32333;SDS011;18810;53.040;8.850;2023-07-30T01:58:27;15.63;;;9.63;;
32333;SDS011;18810;53.040;8.850;2023-07-30T02:00:53;11.27;;;9.30;;
32333;SDS011;18810;53.040;8.850;2023-07-30T02:03:19;11.70;;;9.45;;
32333;SDS011;18810;53.040;8.850;2023-07-30T02:05:44;16.45;;;9.73;;
32333;SDS011;18810;53.040;8.850;2023-07-30T02:08:10;12.27;;;9.70;;
32333;SDS011;18810;53.040;8.850;2023-07-30T02:10:38;14.23;;;10.40;;
32333;SDS011;18810;53.040;8.850;2023-07-30T02:13:04;17.20;;;10.63;;
32333;SDS011;18810;53.040;8.850;2023-07-30T02:15:29;13.30;;;9.98;;
32333;SDS011;18810;53.040;8.850;2023-07-30T02:17:55;12.50;;;9.38;;
32333;SDS011;18810;53.040;8.850;2023-07-30T02:20:21;13.90;;;9.30;;
32333;SDS011;18810;53.040;8.850;2023-07-30T02:22:46;15.70;;;9.52;;
32333;SDS011;18810;53.040;8.850;2023-07-30T02:25:12;14.07;;;8.93;;
32333;SDS011;18810;53.040;8.850;2023-07-30T02:27:38;11.95;;;9.43;;
32333;SDS011;18810;53.040;8.850;2023-07-30T02:30:04;16.70;;;10.57;;
32333;SDS011;18810;53.040;8.850;2023-07-30T02:32:30;13.90;;;10.27;;
32333;SDS011;18810;53.040;8.850;2023-07-30T02:34:56;15.20;;;10.27;;
32333;SDS011;18810;53.040;8.850;2023-07-30T02:37:22;14.10;;;10.43;;
32333;SDS011;18810;53.040;8.850;2023-07-30T02:39:47;14.40;;;9.93;;
32333;SDS011;18810;53.040;8.850;2023-07-30T02:42:13;17.02;;;10.82;;
32333;SDS011;18810;53.040;8.850;2023-07-30T02:44:39;13.82;;;10.35;;
32333;SDS011;18810;53.040;8.850;2023-07-30T02:47:04;13.75;;;9.85;;
32333;SDS011;18810;53.040;8.850;2023-07-30T02:49:30;15.02;;;10.95;;
32333;SDS011;18810;53.040;8.850;2023-07-30T02:51:56;14.52;;;9.80;;
32333;SDS011;18810;53.040;8.850;2023-07-30T02:54:22;14.82;;;11.00;;
32333;SDS011;18810;53.040;8.850;2023-07-30T02:56:48;17.45;;;11.30;;
32333;SDS011;18810;53.040;8.850;2023-07-30T02:59:14;14.05;;;10.60;;
32333;SDS011;18810;53.040;8.850;2023-07-30T03:01:39;14.93;;;11.05;;
32333;SDS011;18810;53.040;8.850;2023-07-30T03:04:05;14.90;;;11.85;;
32333;SDS011;18810;53.040;8.850;2023-07-30T03:06:31;17.38;;;11.55;;
32333;SDS011;18810;53.040;8.850;2023-07-30T03:08:57;21.27;;;11.25;;
32333;SDS011;18810;53.040;8.850;2023-07-30T03:11:22;19.33;;;11.95;;
32333;SDS011;18810;53.040;8.850;2023-07-30T03:13:48;16.90;;;11.18;;
32333;SDS011;18810;53.040;8.850;2023-07-30T03:16:14;15.25;;;10.93;;
32333;SDS011;18810;53.040;8.850;2023-07-30T03:18:40;17.23;;;10.48;;
32333;SDS011;18810;53.040;8.850;2023-07-30T03:21:05;15.38;;;11.57;;
32333;SDS011;18810;53.040;8.850;2023-07-30T03:23:31;17.02;;;11.45;;
32333;SDS011;18810;53.040;8.850;2023-07-30T03:25:57;19.98;;;11.82;;
32333;SDS011;18810;53.040;8.850;2023-07-30T03:28:25;15.35;;;11.50;;
32333;SDS011;18810;53.040;8.850;2023-07-30T03:30:51;15.45;;;11.00;;
32333;SDS011;18810;53.040;8.850;2023-07-30T03:33:16;15.52;;;10.27;;
32333;SDS011;18810;53.040;8.850;2023-07-30T03:35:42;17.75;;;10.68;;
32333;SDS011;18810;53.040;8.850;2023-07-30T03:38:08;21.55;;;12.15;;
32333;SDS011;18810;53.040;8.850;2023-07-30T03:40:34;27.85;;;12.02;;
32333;SDS011;18810;53.040;8.850;2023-07-30T03:42:59;18.63;;;11.70;;
32333;SDS011;18810;53.040;8.850;2023-07-30T03:45:25;21.73;;;11.55;;
32333;SDS011;18810;53.040;8.850;2023-07-30T03:47:50;19.67;;;10.70;;
32333;SDS011;18810;53.040;8.850;2023-07-30T03:50:16;22.48;;;11.02;;
32333;SDS011;18810;53.040;8.850;2023-07-30T03:52:42;19.00;;;10.13;;
32333;SDS011;18810;53.040;8.850;2023-07-30T03:55:08;23.92;;;10.85;;
32333;SDS011;18810;53.040;8.850;2023-07-30T03:57:34;21.27;;;10.63;;
32333;SDS011;18810;53.040;8.850;2023-07-30T04:00:00;14.48;;;9.13;;
32333;SDS011;18810;53.040;8.850;2023-07-30T04:02:26;16.77;;;8.73;;
32333;SDS011;18810;53.040;8.850;2023-07-30T04:04:51;17.33;;;9.10;;
32333;SDS011;18810;53.040;8.850;2023-07-30T04:07:17;18.25;;;9.00;;
32333;SDS011;18810;53.040;8.850;2023-07-30T04:09:43;17.83;;;8.65;;
32333;SDS011;18810;53.040;8.850;2023-07-30T04:12:08;16.80;;;8.73;;
32333;SDS011;18810;53.040;8.850;2023-07-30T04:14:34;16.83;;;8.73;;
32333;SDS011;18810;53.040;8.850;2023-07-30T04:17:00;14.82;;;8.18;;
32333;SDS011;18810;53.040;8.850;2023-07-30T04:19:25;22.88;;;8.25;;
32333;SDS011;18810;53.040;8.850;2023-07-30T04:21:51;15.10;;;8.50;;
32333;SDS011;18810;53.040;8.850;2023-07-30T04:24:17;16.88;;;8.30;;
32333;SDS011;18810;53.040;8.850;2023-07-30T04:26:42;18.27;;;7.63;;
32333;SDS011;18810;53.040;8.850;2023-07-30T04:29:08;17.80;;;7.38;;
32333;SDS011;18810;53.040;8.850;2023-07-30T04:31:35;17.77;;;7.78;;
32333;SDS011;18810;53.040;8.850;2023-07-30T04:34:01;14.70;;;8.10;;
32333;SDS011;18810;53.040;8.850;2023-07-30T04:36:26;21.30;;;7.05;;
32333;SDS011;18810;53.040;8.850;2023-07-30T04:38:53;16.85;;;7.07;;
32333;SDS011;18810;53.040;8.850;2023-07-30T04:41:19;13.45;;;6.18;;
32333;SDS011;18810;53.040;8.850;2023-07-30T04:43:45;13.40;;;7.15;;
32333;SDS011;18810;53.040;8.850;2023-07-30T04:46:11;12.25;;;6.25;;
32333;SDS011;18810;53.040;8.850;2023-07-30T04:48:37;14.10;;;6.22;;
32333;SDS011;18810;53.040;8.850;2023-07-30T04:51:02;14.82;;;5.88;;
32333;SDS011;18810;53.040;8.850;2023-07-30T04:53:28;16.67;;;6.13;;
32333;SDS011;18810;53.040;8.850;2023-07-30T04:55:55;14.90;;;6.13;;
32333;SDS011;18810;53.040;8.850;2023-07-30T04:58:22;15.85;;;5.53;;
32333;SDS011;18810;53.040;8.850;2023-07-30T05:00:48;13.07;;;6.13;;
32333;SDS011;18810;53.040;8.850;2023-07-30T05:03:14;14.82;;;6.10;;
32333;SDS011;18810;53.040;8.850;2023-07-30T05:05:40;14.65;;;6.43;;
32333;SDS011;18810;53.040;8.850;2023-07-30T05:08:06;21.17;;;6.65;;
32333;SDS011;18810;53.040;8.850;2023-07-30T05:10:31;17.55;;;6.03;;
32333;SDS011;18810;53.040;8.850;2023-07-30T05:12:57;10.18;;;5.75;;
32333;SDS011;18810;53.040;8.850;2023-07-30T05:15:23;14.00;;;6.10;;
32333;SDS011;18810;53.040;8.850;2023-07-30T05:17:48;10.82;;;6.35;;
32333;SDS011;18810;53.040;8.850;2023-07-30T05:20:14;17.13;;;5.90;;
32333;SDS011;18810;53.040;8.850;2023-07-30T05:22:40;11.95;;;5.60;;
32333;SDS011;18810;53.040;8.850;2023-07-30T05:25:06;13.57;;;6.00;;
32333;SDS011;18810;53.040;8.850;2023-07-30T05:27:32;12.90;;;5.80;;
32333;SDS011;18810;53.040;8.850;2023-07-30T05:29:57;12.38;;;5.78;;
32333;SDS011;18810;53.040;8.850;2023-07-30T05:32:23;12.98;;;5.50;;
32333;SDS011;18810;53.040;8.850;2023-07-30T05:34:49;11.35;;;5.50;;
32333;SDS011;18810;53.040;8.850;2023-07-30T05:37:14;15.10;;;5.10;;
32333;SDS011;18810;53.040;8.850;2023-07-30T05:39:40;15.20;;;5.47;;
32333;SDS011;18810;53.040;8.850;2023-07-30T05:42:06;11.82;;;5.25;;
32333;SDS011;18810;53.040;8.850;2023-07-30T05:44:32;12.98;;;5.00;;
32333;SDS011;18810;53.040;8.850;2023-07-30T05:46:57;12.65;;;4.45;;
32333;SDS011;18810;53.040;8.850;2023-07-30T05:49:24;14.10;;;5.68;;
32333;SDS011;18810;53.040;8.850;2023-07-30T05:51:50;11.05;;;5.20;;
32333;SDS011;18810;53.040;8.850;2023-07-30T05:54:16;11.50;;;5.20;;
32333;SDS011;18810;53.040;8.850;2023-07-30T05:56:42;8.43;;;4.70;;
32333;SDS011;18810;53.040;8.850;2023-07-30T05:59:08;13.77;;;5.75;;
32333;SDS011;18810;53.040;8.850;2023-07-30T06:01:34;11.98;;;5.38;;
32333;SDS011;18810;53.040;8.850;2023-07-30T06:04:00;15.57;;;6.05;;
32333;SDS011;18810;53.040;8.850;2023-07-30T06:06:25;14.15;;;5.28;;
32333;SDS011;18810;53.040;8.850;2023-07-30T06:08:54;14.30;;;5.53;;
32333;SDS011;18810;53.040;8.850;2023-07-30T06:11:20;12.68;;;5.93;;
32333;SDS011;18810;53.040;8.850;2023-07-30T06:13:46;12.85;;;5.53;;
32333;SDS011;18810;53.040;8.850;2023-07-30T06:16:13;13.10;;;5.82;;
32333;SDS011;18810;53.040;8.850;2023-07-30T06:18:39;14.00;;;5.60;;
32333;SDS011;18810;53.040;8.850;2023-07-30T06:21:05;11.77;;;5.35;;
32333;SDS011;18810;53.040;8.850;2023-07-30T06:23:30;16.50;;;5.82;;
32333;SDS011;18810;53.040;8.850;2023-07-30T06:25:56;15.50;;;5.72;;
32333;SDS011;18810;53.040;8.850;2023-07-30T06:28:22;16.55;;;6.45;;
32333;SDS011;18810;53.040;8.850;2023-07-30T06:30:50;11.52;;;5.85;;
32333;SDS011;18810;53.040;8.850;2023-07-30T06:33:16;13.35;;;5.88;;
32333;SDS011;18810;53.040;8.850;2023-07-30T06:35:42;19.25;;;5.95;;
32333;SDS011;18810;53.040;8.850;2023-07-30T06:38:08;16.15;;;5.22;;
32333;SDS011;18810;53.040;8.850;2023-07-30T06:40:34;18.10;;;6.60;;
32333;SDS011;18810;53.040;8.850;2023-07-30T06:43:00;18.83;;;5.60;;
32333;SDS011;18810;53.040;8.850;2023-07-30T06:45:25;11.70;;;4.75;;
32333;SDS011;18810;53.040;8.850;2023-07-30T06:47:51;11.35;;;5.22;;
32333;SDS011;18810;53.040;8.850;2023-07-30T06:50:17;12.70;;;5.78;;
32333;SDS011;18810;53.040;8.850;2023-07-30T06:52:43;16.45;;;6.30;;
32333;SDS011;18810;53.040;8.850;2023-07-30T06:55:08;12.60;;;5.68;;
32333;SDS011;18810;53.040;8.850;2023-07-30T06:57:34;21.80;;;6.35;;
32333;SDS011;18810;53.040;8.850;2023-07-30T07:00:03;15.35;;;6.47;;
32333;SDS011;18810;53.040;8.850;2023-07-30T07:02:30;18.27;;;6.25;;
32333;SDS011;18810;53.040;8.850;2023-07-30T07:04:55;22.15;;;6.57;;
32333;SDS011;18810;53.040;8.850;2023-07-30T07:07:21;21.92;;;6.45;;
32333;SDS011;18810;53.040;8.850;2023-07-30T07:09:47;17.13;;;6.30;;
32333;SDS011;18810;53.040;8.850;2023-07-30T07:12:12;13.68;;;5.80;;
32333;SDS011;18810;53.040;8.850;2023-07-30T07:14:38;17.90;;;5.60;;
32333;SDS011;18810;53.040;8.850;2023-07-30T07:17:04;17.33;;;5.88;;
32333;SDS011;18810;53.040;8.850;2023-07-30T07:19:30;13.60;;;5.93;;
32333;SDS011;18810;53.040;8.850;2023-07-30T07:21:56;14.55;;;6.32;;
32333;SDS011;18810;53.040;8.850;2023-07-30T07:24:22;15.60;;;5.68;;
32333;SDS011;18810;53.040;8.850;2023-07-30T07:26:47;12.48;;;6.82;;
32333;SDS011;18810;53.040;8.850;2023-07-30T07:29:13;18.70;;;7.50;;
32333;SDS011;18810;53.040;8.850;2023-07-30T07:31:39;16.02;;;6.38;;
32333;SDS011;18810;53.040;8.850;2023-07-30T07:34:04;19.65;;;7.43;;
32333;SDS011;18810;53.040;8.850;2023-07-30T07:36:30;15.98;;;6.35;;
32333;SDS011;18810;53.040;8.850;2023-07-30T07:38:56;17.73;;;7.22;;
32333;SDS011;18810;53.040;8.850;2023-07-30T07:41:21;13.38;;;6.53;;
32333;SDS011;18810;53.040;8.850;2023-07-30T07:43:47;15.23;;;6.22;;
32333;SDS011;18810;53.040;8.850;2023-07-30T07:46:13;14.38;;;5.90;;
32333;SDS011;18810;53.040;8.850;2023-07-30T07:48:40;19.60;;;6.18;;
32333;SDS011;18810;53.040;8.850;2023-07-30T07:51:06;13.80;;;6.05;;
32333;SDS011;18810;53.040;8.850;2023-07-30T07:53:33;17.10;;;6.03;;
32333;SDS011;18810;53.040;8.850;2023-07-30T07:55:59;14.40;;;6.60;;
32333;SDS011;18810;53.040;8.850;2023-07-30T07:58:24;16.17;;;5.88;;
32333;SDS011;18810;53.040;8.850;2023-07-30T08:00:50;14.27;;;5.70;;
32333;SDS011;18810;53.040;8.850;2023-07-30T08:03:19;15.52;;;5.55;;
32333;SDS011;18810;53.040;8.850;2023-07-30T08:05:45;17.15;;;5.50;;
32333;SDS011;18810;53.040;8.850;2023-07-30T08:08:10;16.55;;;5.22;;
32333;SDS011;18810;53.040;8.850;2023-07-30T08:10:40;13.55;;;5.53;;
32333;SDS011;18810;53.040;8.850;2023-07-30T08:13:09;9.98;;;4.63;;
32333;SDS011;18810;53.040;8.850;2023-07-30T08:15:37;11.68;;;4.55;;
32333;SDS011;18810;53.040;8.850;2023-07-30T08:18:03;15.93;;;5.35;;
32333;SDS011;18810;53.040;8.850;2023-07-30T08:20:29;13.30;;;4.57;;
32333;SDS011;18810;53.040;8.850;2023-07-30T08:22:54;17.45;;;5.30;;
32333;SDS011;18810;53.040;8.850;2023-07-30T08:25:20;11.88;;;4.75;;
32333;SDS011;18810;53.040;8.850;2023-07-30T08:27:46;11.38;;;4.43;;
32333;SDS011;18810;53.040;8.850;2023-07-30T08:30:12;8.88;;;3.80;;
32333;SDS011;18810;53.040;8.850;2023-07-30T08:32:38;10.63;;;4.82;;
32333;SDS011;18810;53.040;8.850;2023-07-30T08:35:04;9.32;;;5.07;;
32333;SDS011;18810;53.040;8.850;2023-07-30T08:37:30;12.13;;;4.95;;
32333;SDS011;18810;53.040;8.850;2023-07-30T08:39:56;13.82;;;5.55;;
32333;SDS011;18810;53.040;8.850;2023-07-30T08:42:22;10.63;;;5.65;;
32333;SDS011;18810;53.040;8.850;2023-07-30T08:44:47;13.68;;;5.80;;
32333;SDS011;18810;53.040;8.850;2023-07-30T08:47:13;13.60;;;5.18;;
32333;SDS011;18810;53.040;8.850;2023-07-30T08:49:39;12.85;;;5.90;;
32333;SDS011;18810;53.040;8.850;2023-07-30T08:52:06;15.18;;;6.13;;
32333;SDS011;18810;53.040;8.850;2023-07-30T08:54:34;13.90;;;5.72;;
32333;SDS011;18810;53.040;8.850;2023-07-30T08:57:01;19.45;;;6.47;;
32333;SDS011;18810;53.040;8.850;2023-07-30T08:59:27;16.23;;;5.57;;
32333;SDS011;18810;53.040;8.850;2023-07-30T09:02:08;18.02;;;6.13;;
32333;SDS011;18810;53.040;8.850;2023-07-30T09:04:40;12.20;;;5.70;;
32333;SDS011;18810;53.040;8.850;2023-07-30T09:07:08;14.50;;;6.97;;
32333;SDS011;18810;53.040;8.850;2023-07-30T09:09:35;15.77;;;5.80;;
32333;SDS011;18810;53.040;8.850;2023-07-30T09:12:01;16.48;;;6.68;;
32333;SDS011;18810;53.040;8.850;2023-07-30T09:14:27;16.10;;;5.88;;
32333;SDS011;18810;53.040;8.850;2023-07-30T09:16:56;12.48;;;5.55;;
32333;SDS011;18810;53.040;8.850;2023-07-30T09:19:23;13.30;;;5.90;;
32333;SDS011;18810;53.040;8.850;2023-07-30T09:21:49;16.60;;;5.43;;
32333;SDS011;18810;53.040;8.850;2023-07-30T09:24:20;11.60;;;6.03;;
32333;SDS011;18810;53.040;8.850;2023-07-30T09:26:46;18.40;;;6.10;;
32333;SDS011;18810;53.040;8.850;2023-07-30T09:29:12;18.10;;;6.85;;
32333;SDS011;18810;53.040;8.850;2023-07-30T09:31:52;19.40;;;7.15;;
32333;SDS011;18810;53.040;8.850;2023-07-30T09:34:20;13.68;;;6.70;;
32333;SDS011;18810;53.040;8.850;2023-07-30T09:36:46;13.85;;;5.93;;
32333;SDS011;18810;53.040;8.850;2023-07-30T09:39:24;13.13;;;5.90;;
32333;SDS011;18810;53.040;8.850;2023-07-30T09:41:51;17.42;;;7.78;;
32333;SDS011;18810;53.040;8.850;2023-07-30T09:44:24;14.00;;;6.68;;
32333;SDS011;18810;53.040;8.850;2023-07-30T09:46:50;18.75;;;7.00;;
32333;SDS011;18810;53.040;8.850;2023-07-30T09:49:16;16.90;;;7.03;;
32333;SDS011;18810;53.040;8.850;2023-07-30T09:51:44;14.60;;;6.97;;
32333;SDS011;18810;53.040;8.850;2023-07-30T09:54:13;20.45;;;8.07;;
32333;SDS011;18810;53.040;8.850;2023-07-30T09:56:40;16.98;;;6.95;;
32333;SDS011;18810;53.040;8.850;2023-07-30T09:59:07;14.75;;;6.63;;
32333;SDS011;18810;53.040;8.850;2023-07-30T10:01:38;18.08;;;6.40;;
32333;SDS011;18810;53.040;8.850;2023-07-30T10:04:14;16.95;;;6.88;;
32333;SDS011;18810;53.040;8.850;2023-07-30T10:06:44;17.17;;;7.28;;
32333;SDS011;18810;53.040;8.850;2023-07-30T10:09:16;17.88;;;6.55;;
32333;SDS011;18810;53.040;8.850;2023-07-30T10:11:44;18.50;;;6.70;;
32333;SDS011;18810;53.040;8.850;2023-07-30T10:14:12;12.88;;;5.30;;
32333;SDS011;18810;53.040;8.850;2023-07-30T10:16:39;14.77;;;6.40;;
32333;SDS011;18810;53.040;8.850;2023-07-30T10:19:14;16.10;;;5.80;;
32333;SDS011;18810;53.040;8.850;2023-07-30T10:21:41;11.73;;;5.85;;
32333;SDS011;18810;53.040;8.850;2023-07-30T10:24:07;13.38;;;5.45;;
32333;SDS011;18810;53.040;8.850;2023-07-30T10:26:34;16.15;;;6.10;;
32333;SDS011;18810;53.040;8.850;2023-07-30T10:29:12;12.25;;;5.25;;
32333;SDS011;18810;53.040;8.850;2023-07-30T10:31:42;12.70;;;5.10;;
32333;SDS011;18810;53.040;8.850;2023-07-30T10:34:20;11.52;;;5.72;;
32333;SDS011;18810;53.040;8.850;2023-07-30T10:36:48;17.55;;;5.53;;
32333;SDS011;18810;53.040;8.850;2023-07-30T10:39:19;13.95;;;5.63;;
32333;SDS011;18810;53.040;8.850;2023-07-30T10:41:55;12.43;;;5.00;;
32333;SDS011;18810;53.040;8.850;2023-07-30T10:44:26;11.07;;;4.63;;
32333;SDS011;18810;53.040;8.850;2023-07-30T10:46:56;11.75;;;4.60;;
32333;SDS011;18810;53.040;8.850;2023-07-30T10:49:24;12.93;;;4.90;;
32333;SDS011;18810;53.040;8.850;2023-07-30T10:51:54;12.27;;;4.78;;
32333;SDS011;18810;53.040;8.850;2023-07-30T10:54:22;11.10;;;4.32;;
32333;SDS011;18810;53.040;8.850;2023-07-30T10:56:48;12.57;;;5.75;;
32333;SDS011;18810;53.040;8.850;2023-07-30T10:59:14;12.85;;;4.68;;
32333;SDS011;18810;53.040;8.850;2023-07-30T11:01:41;10.82;;;4.57;;
32333;SDS011;18810;53.040;8.850;2023-07-30T11:04:09;13.20;;;4.93;;
32333;SDS011;18810;53.040;8.850;2023-07-30T11:06:37;13.02;;;4.85;;
32333;SDS011;18810;53.040;8.850;2023-07-30T11:09:03;13.25;;;4.72;;
32333;SDS011;18810;53.040;8.850;2023-07-30T11:11:29;13.60;;;4.97;;
32333;SDS011;18810;53.040;8.850;2023-07-30T11:13:55;8.85;;;4.43;;
32333;SDS011;18810;53.040;8.850;2023-07-30T11:16:22;9.40;;;4.40;;
32333;SDS011;18810;53.040;8.850;2023-07-30T11:18:48;11.38;;;4.40;;
32333;SDS011;18810;53.040;8.850;2023-07-30T11:21:14;7.95;;;4.05;;
32333;SDS011;18810;53.040;8.850;2023-07-30T11:23:42;9.73;;;3.95;;
32333;SDS011;18810;53.040;8.850;2023-07-30T11:26:12;9.45;;;3.92;;
32333;SDS011;18810;53.040;8.850;2023-07-30T11:28:39;8.60;;;3.72;;
32333;SDS011;18810;53.040;8.850;2023-07-30T11:31:07;10.80;;;4.30;;
32333;SDS011;18810;53.040;8.850;2023-07-30T11:33:38;7.88;;;4.32;;
32333;SDS011;18810;53.040;8.850;2023-07-30T11:36:09;10.52;;;4.65;;
32333;SDS011;18810;53.040;8.850;2023-07-30T11:38:39;11.73;;;4.22;;
32333;SDS011;18810;53.040;8.850;2023-07-30T11:41:06;11.95;;;4.45;;
32333;SDS011;18810;53.040;8.850;2023-07-30T11:43:53;10.85;;;6.32;;
32333;SDS011;18810;53.040;8.850;2023-07-30T11:46:19;10.38;;;4.95;;
32333;SDS011;18810;53.040;8.850;2023-07-30T11:48:47;8.95;;;5.38;;
32333;SDS011;18810;53.040;8.850;2023-07-30T11:51:26;24.90;;;15.52;;
32333;SDS011;18810;53.040;8.850;2023-07-30T11:53:56;14.35;;;5.45;;
32333;SDS011;18810;53.040;8.850;2023-07-30T11:56:27;11.45;;;5.05;;
32333;SDS011;18810;53.040;8.850;2023-07-30T11:59:00;15.30;;;7.97;;
32333;SDS011;18810;53.040;8.850;2023-07-30T12:01:29;9.07;;;4.43;;
32333;SDS011;18810;53.040;8.850;2023-07-30T12:03:59;11.45;;;5.93;;
32333;SDS011;18810;53.040;8.850;2023-07-30T12:06:45;11.88;;;4.97;;
32333;SDS011;18810;53.040;8.850;2023-07-30T12:09:16;9.20;;;4.78;;
32333;SDS011;18810;53.040;8.850;2023-07-30T12:11:55;7.18;;;3.83;;
32333;SDS011;18810;53.040;8.850;2023-07-30T12:14:26;10.95;;;4.38;;
32333;SDS011;18810;53.040;8.850;2023-07-30T12:16:58;10.38;;;4.72;;
32333;SDS011;18810;53.040;8.850;2023-07-30T12:19:26;9.60;;;4.70;;
32333;SDS011;18810;53.040;8.850;2023-07-30T12:21:52;12.27;;;4.88;;
32333;SDS011;18810;53.040;8.850;2023-07-30T12:24:18;8.35;;;4.07;;
32333;SDS011;18810;53.040;8.850;2023-07-30T12:26:44;9.18;;;3.35;;
32333;SDS011;18810;53.040;8.850;2023-07-30T12:29:09;7.10;;;3.00;;
32333;SDS011;18810;53.040;8.850;2023-07-30T12:31:35;6.65;;;2.90;;
32333;SDS011;18810;53.040;8.850;2023-07-30T12:34:00;6.65;;;2.95;;
32333;SDS011;18810;53.040;8.850;2023-07-30T12:36:26;9.93;;;3.45;;
32333;SDS011;18810;53.040;8.850;2023-07-30T12:38:52;6.93;;;3.38;;
32333;SDS011;18810;53.040;8.850;2023-07-30T12:41:19;5.53;;;3.13;;
32333;SDS011;18810;53.040;8.850;2023-07-30T12:43:50;8.02;;;3.47;;
32333;SDS011;18810;53.040;8.850;2023-07-30T12:46:17;8.35;;;4.05;;
32333;SDS011;18810;53.040;8.850;2023-07-30T12:48:44;6.30;;;3.85;;
32333;SDS011;18810;53.040;8.850;2023-07-30T12:51:09;8.73;;;3.78;;
32333;SDS011;18810;53.040;8.850;2023-07-30T12:53:35;7.60;;;3.10;;
32333;SDS011;18810;53.040;8.850;2023-07-30T12:56:00;4.13;;;2.70;;
32333;SDS011;18810;53.040;8.850;2023-07-30T12:58:26;8.95;;;2.67;;
32333;SDS011;18810;53.040;8.850;2023-07-30T13:00:52;6.25;;;3.05;;
32333;SDS011;18810;53.040;8.850;2023-07-30T13:03:17;4.50;;;2.40;;
32333;SDS011;18810;53.040;8.850;2023-07-30T13:05:43;6.18;;;2.70;;
32333;SDS011;18810;53.040;8.850;2023-07-30T13:08:08;5.25;;;2.90;;
32333;SDS011;18810;53.040;8.850;2023-07-30T13:10:34;7.13;;;3.13;;
32333;SDS011;18810;53.040;8.850;2023-07-30T13:13:00;4.45;;;3.33;;
32333;SDS011;18810;53.040;8.850;2023-07-30T13:15:26;5.90;;;3.60;;
32333;SDS011;18810;53.040;8.850;2023-07-30T13:17:53;9.70;;;4.70;;
32333;SDS011;18810;53.040;8.850;2023-07-30T13:20:18;8.27;;;4.05;;
32333;SDS011;18810;53.040;8.850;2023-07-30T13:22:44;9.98;;;3.88;;
32333;SDS011;18810;53.040;8.850;2023-07-30T13:25:10;9.70;;;4.40;;
32333;SDS011;18810;53.040;8.850;2023-07-30T13:27:35;7.57;;;3.88;;
32333;SDS011;18810;53.040;8.850;2023-07-30T13:30:01;8.45;;;3.45;;
32333;SDS011;18810;53.040;8.850;2023-07-30T13:32:27;4.90;;;3.65;;
32333;SDS011;18810;53.040;8.850;2023-07-30T13:34:52;7.32;;;3.83;;
32333;SDS011;18810;53.040;8.850;2023-07-30T13:37:18;7.35;;;4.20;;
32333;SDS011;18810;53.040;8.850;2023-07-30T13:39:44;8.65;;;3.65;;
32333;SDS011;18810;53.040;8.850;2023-07-30T13:42:10;9.98;;;3.50;;
32333;SDS011;18810;53.040;8.850;2023-07-30T13:44:36;9.30;;;3.70;;
32333;SDS011;18810;53.040;8.850;2023-07-30T13:47:02;6.90;;;3.15;;
32333;SDS011;18810;53.040;8.850;2023-07-30T13:49:27;5.40;;;2.90;;
32333;SDS011;18810;53.040;8.850;2023-07-30T13:51:53;8.77;;;3.10;;
32333;SDS011;18810;53.040;8.850;2023-07-30T13:54:19;6.22;;;2.80;;
32333;SDS011;18810;53.040;8.850;2023-07-30T13:56:44;7.55;;;3.17;;
32333;SDS011;18810;53.040;8.850;2023-07-30T13:59:10;6.20;;;2.50;;
32333;SDS011;18810;53.040;8.850;2023-07-30T14:01:35;5.90;;;2.75;;
32333;SDS011;18810;53.040;8.850;2023-07-30T14:04:01;8.75;;;3.17;;
32333;SDS011;18810;53.040;8.850;2023-07-30T14:06:27;6.80;;;2.95;;
32333;SDS011;18810;53.040;8.850;2023-07-30T14:08:53;4.28;;;2.53;;
32333;SDS011;18810;53.040;8.850;2023-07-30T14:11:19;6.55;;;2.75;;
32333;SDS011;18810;53.040;8.850;2023-07-30T14:13:45;7.15;;;3.03;;
32333;SDS011;18810;53.040;8.850;2023-07-30T14:16:11;5.47;;;3.10;;
32333;SDS011;18810;53.040;8.850;2023-07-30T14:18:36;6.63;;;2.88;;
32333;SDS011;18810;53.040;8.850;2023-07-30T14:21:04;7.72;;;3.10;;
32333;SDS011;18810;53.040;8.850;2023-07-30T14:23:29;10.25;;;3.35;;
32333;SDS011;18810;53.040;8.850;2023-07-30T14:25:56;4.68;;;2.83;;
32333;SDS011;18810;53.040;8.850;2023-07-30T14:28:21;7.95;;;3.30;;
32333;SDS011;18810;53.040;8.850;2023-07-30T14:30:47;7.05;;;3.22;;
32333;SDS011;18810;53.040;8.850;2023-07-30T14:33:13;9.57;;;3.22;;
32333;SDS011;18810;53.040;8.850;2023-07-30T14:35:39;7.65;;;3.72;;